createdAt,value
2022-07-29T00:01:46.981Z,1.5
2022-07-29T00:03:48.254Z,1.8
2022-07-29T00:05:52.421Z,1.5
2022-07-29T00:07:53.549Z,1.7
2022-07-29T00:09:54.719Z,1.8
2022-07-29T00:11:55.876Z,1.7
2022-07-29T00:13:56.989Z,1.8
2022-07-29T00:17:59.355Z,1.4
2022-07-29T00:20:03.663Z,1.8
2022-07-29T00:22:04.829Z,1.5
2022-07-29T00:24:05.965Z,1.5
2022-07-29T00:25:08.111Z,1.6
2022-07-29T00:29:33.484Z,1.7
2022-07-29T00:31:11.588Z,1.2
2022-07-29T00:33:15.851Z,1.7
2022-07-29T00:35:16.969Z,1.6
2022-07-29T00:37:18.109Z,1.4
2022-07-29T00:39:19.273Z,1.5
2022-07-29T00:41:20.430Z,1.7
2022-07-29T00:43:21.551Z,1.9
2022-07-29T00:45:22.694Z,1.8
2022-07-29T00:47:26.998Z,1.7
2022-07-29T00:49:28.325Z,1.8
2022-07-29T00:51:29.329Z,2.2
2022-07-29T00:53:30.546Z,2.1
2022-07-29T00:55:31.715Z,1.8
2022-07-29T00:57:32.864Z,2.1
2022-07-29T00:59:35.041Z,1.5
2022-07-29T01:01:38.606Z,1.3
2022-07-29T01:03:39.733Z,2.2
2022-07-29T01:05:50.729Z,1.8
2022-07-29T01:07:42.036Z,2.4
2022-07-29T01:09:46.915Z,2.2
2022-07-29T01:17:52.811Z,1.8
2022-07-29T01:19:52.309Z,3.2
2022-07-29T01:22:14.493Z,2.2
2022-07-29T01:24:16.120Z,2.1
2022-07-29T01:26:20.291Z,2.1
2022-07-29T01:28:21.333Z,1.8
2022-07-29T01:30:22.576Z,2.3
2022-07-29T01:34:25.071Z,2.3
2022-07-29T01:36:26.247Z,2.4
2022-07-29T01:42:33.285Z,2.1
2022-07-29T01:48:37.021Z,2.7
2022-07-29T01:50:38.162Z,2
2022-07-29T02:00:47.573Z,2.3
2022-07-29T02:02:48.738Z,3.2
2022-07-29T02:08:52.483Z,2
2022-07-29T02:12:58.034Z,2.5
2022-07-29T02:16:01.647Z,3.4
2022-07-29T02:18:02.807Z,2.2
2022-07-29T02:20:04.071Z,2.7
2022-07-29T02:22:05.315Z,2.4
2022-07-29T02:24:09.845Z,2.2
2022-07-29T02:28:12.358Z,2
2022-07-29T02:30:13.602Z,2.1
2022-07-29T02:32:14.872Z,3.1
2022-07-29T02:38:21.905Z,2.3
2022-07-29T02:40:23.128Z,2.3
2022-07-29T02:54:34.973Z,2
2022-07-29T02:56:36.125Z,2.1
2022-07-29T02:58:37.253Z,2.7
2022-07-29T03:00:38.368Z,2.1
2022-07-29T03:02:39.519Z,2.6
2022-07-29T03:04:40.674Z,2
2022-07-29T03:06:45.173Z,2.6
2022-07-29T03:08:46.277Z,2.2
2022-07-29T03:10:47.413Z,2.6
2022-07-29T03:11:50.966Z,2.6
2022-07-29T03:13:50.733Z,1.8
2022-07-29T03:15:51.930Z,2.5
2022-07-29T03:17:53.010Z,2.3
2022-07-29T03:19:57.437Z,2.4
2022-07-29T03:21:58.592Z,2.1
2022-07-29T03:23:59.722Z,2.2
2022-07-29T03:28:02.134Z,3
2022-07-29T03:30:03.251Z,2.2
2022-07-29T03:32:04.438Z,2.7
2022-07-29T03:34:08.833Z,2.2
2022-07-29T03:38:11.272Z,2.1
2022-07-29T03:40:12.499Z,2.3
2022-07-29T03:42:13.726Z,2
2022-07-29T03:44:15.265Z,2.5
2022-07-29T03:52:22.942Z,2.3
2022-07-29T03:54:24.104Z,2.1
2022-07-29T03:56:25.336Z,3
2022-07-29T03:58:26.601Z,2.6
2022-07-29T04:00:27.847Z,1.8
2022-07-29T04:02:32.471Z,2.2
2022-07-29T04:07:37.161Z,2.8
2022-07-29T04:09:38.419Z,3.2
2022-07-29T04:11:56.957Z,2.2
2022-07-29T04:13:40.790Z,2.4
2022-07-29T04:15:45.373Z,3.9
2022-07-29T04:17:46.553Z,3.5
2022-07-29T04:27:52.857Z,3.5
2022-07-29T04:33:59.871Z,3.3
2022-07-29T04:38:02.349Z,3.6
2022-07-29T04:40:03.604Z,4.4
2022-07-29T04:42:04.864Z,3.3
2022-07-29T04:44:10.898Z,3.7
2022-07-29T04:46:12.206Z,4
2022-07-29T04:48:13.389Z,3.9
2022-07-29T04:50:14.621Z,3.6
2022-07-29T04:52:15.896Z,4.2
2022-07-29T04:54:17.503Z,3.5
2022-07-29T04:56:18.365Z,6.1
2022-07-29T04:58:22.910Z,3.9
2022-07-29T05:00:24.172Z,4.4
2022-07-29T05:02:25.438Z,3.7
2022-07-29T05:16:58.616Z,4
2022-07-29T05:18:59.881Z,5.3
2022-07-29T05:23:02.390Z,3.9
2022-07-29T05:25:09.184Z,4.3
2022-07-29T05:33:35.807Z,4.2
2022-07-29T05:35:13.182Z,7
2022-07-29T05:37:14.413Z,3.3
2022-07-29T05:39:18.954Z,3.3
2022-07-29T05:41:20.224Z,4.1
2022-07-29T05:45:22.690Z,3.9
2022-07-29T05:47:23.932Z,4.2
2022-07-29T05:49:27.450Z,4.2
2022-07-29T05:51:26.472Z,4.4
2022-07-29T05:55:32.210Z,4.2
2022-07-29T05:57:33.488Z,4.2
2022-07-29T05:58:35.748Z,3.7
2022-07-29T06:00:36.992Z,4.6
2022-07-29T06:02:38.271Z,4.8
2022-07-29T06:04:39.592Z,4
2022-07-29T06:06:44.229Z,4.8
2022-07-29T06:08:45.279Z,4.3
2022-07-29T06:10:46.595Z,4.7
2022-07-29T06:12:47.829Z,5
2022-07-29T06:24:58.551Z,5.4
2022-07-29T06:26:59.829Z,4.6
2022-07-29T06:29:01.047Z,4.4
2022-07-29T06:31:02.341Z,3.6
2022-07-29T06:33:03.522Z,4.1
2022-07-29T06:35:37.891Z,4.6
2022-07-29T06:37:11.267Z,4.1
2022-07-29T06:39:11.682Z,5.9
2022-07-29T06:41:11.785Z,3.3
2022-07-29T06:43:13.028Z,4.7
2022-07-29T06:45:14.266Z,6.5
2022-07-29T06:47:15.509Z,3.3
2022-07-29T06:51:23.323Z,3.7
2022-07-29T06:53:22.278Z,4.2
2022-07-29T06:54:24.416Z,3.9
2022-07-29T06:56:25.560Z,4.2
2022-07-29T06:58:26.698Z,3.6
2022-07-29T07:00:27.861Z,4.9
2022-07-29T07:02:32.203Z,3.8
2022-07-29T07:04:33.294Z,3.9
2022-07-29T07:06:34.430Z,4.1
2022-07-29T07:10:36.698Z,3.8
2022-07-29T07:12:37.833Z,3.7
2022-07-29T07:16:43.363Z,4.3
2022-07-29T07:18:44.408Z,5.2
2022-07-29T07:20:45.573Z,3.9
2022-07-29T07:22:46.671Z,4.2
2022-07-29T07:26:48.919Z,4.5
2022-07-29T07:28:50.050Z,4.3
2022-07-29T07:30:54.378Z,4.3
2022-07-29T07:32:55.472Z,4.6
2022-07-29T07:34:56.625Z,3.8
2022-07-29T07:36:57.710Z,3.4
2022-07-29T07:43:01.089Z,3.6
2022-07-29T07:45:13.616Z,4.1
2022-07-29T07:47:12.297Z,3.5
2022-07-29T07:49:08.083Z,3.6
2022-07-29T07:54:12.527Z,4.1
2022-07-29T07:56:13.489Z,3.6
2022-07-29T07:58:17.809Z,3.6
2022-07-29T08:00:18.884Z,3.6
2022-07-29T08:02:20.196Z,3.6
2022-07-29T08:06:22.224Z,3.6
2022-07-29T08:08:23.342Z,4.5
2022-07-29T08:10:24.422Z,3.6
2022-07-29T08:12:28.722Z,3.8
2022-07-29T08:14:29.843Z,4.5
2022-07-29T08:16:30.970Z,3.3
2022-07-29T08:18:32.041Z,3.9
2022-07-29T08:20:33.143Z,3.1
2022-07-29T08:22:34.233Z,3.4
2022-07-29T08:24:35.360Z,3.5
2022-07-29T08:26:39.675Z,4.2
2022-07-29T08:30:41.812Z,3
2022-07-29T08:32:53.674Z,3.4
2022-07-29T08:36:45.099Z,4.6
2022-07-29T08:38:46.219Z,3.2
2022-07-29T08:40:50.473Z,3.5
2022-07-29T08:42:51.578Z,3.6
2022-07-29T08:44:52.683Z,3.5
2022-07-29T08:47:15.046Z,3.7
2022-07-29T08:49:16.199Z,3.9
2022-07-29T08:51:17.227Z,3.6
2022-07-29T08:53:21.522Z,4.1
2022-07-29T08:55:22.629Z,3.7
2022-07-29T08:57:23.710Z,3.6
2022-07-29T08:59:24.833Z,3.2
2022-07-29T09:01:35.155Z,3.7
2022-07-29T09:03:27.049Z,4.3
2022-07-29T09:05:28.098Z,3.7
2022-07-29T09:07:34.824Z,3.7
2022-07-29T09:09:33.444Z,3.9
2022-07-29T09:11:34.526Z,3.8
2022-07-29T09:15:36.705Z,6.3
2022-07-29T09:17:37.845Z,4.2
2022-07-29T09:19:38.856Z,3.7
2022-07-29T09:21:43.121Z,3.7
2022-07-29T09:23:44.217Z,5.1
2022-07-29T09:25:45.294Z,4
2022-07-29T09:27:46.351Z,4.6
2022-07-29T09:29:47.424Z,2.8
2022-07-29T09:31:48.595Z,4
2022-07-29T09:33:49.610Z,3.3
2022-07-29T09:35:56.528Z,4
2022-07-29T09:37:54.961Z,4
2022-07-29T09:39:56.039Z,3.9
2022-07-29T09:42:59.256Z,3.7
2022-07-29T09:45:00.338Z,3.7
2022-07-29T09:47:01.518Z,4.1
2022-07-29T09:49:05.739Z,4.2
2022-07-29T09:51:06.740Z,4.6
2022-07-29T09:53:07.816Z,3.7
2022-07-29T09:55:08.905Z,5.8
2022-07-29T09:57:09.969Z,4
2022-07-29T09:59:11.048Z,3.5
2022-07-29T10:01:12.217Z,3.9
2022-07-29T10:03:16.591Z,4.4
2022-07-29T10:05:17.489Z,4.4
2022-07-29T10:07:18.595Z,4.1
2022-07-29T10:09:19.714Z,4
2022-07-29T10:13:22.051Z,4.1
2022-07-29T10:15:22.900Z,5.2
2022-07-29T10:17:27.169Z,3.9
2022-07-29T10:19:28.258Z,4.1
2022-07-29T10:21:35.317Z,4.1
2022-07-29T10:23:30.400Z,5.7
2022-07-29T10:25:31.477Z,4.8
2022-07-29T10:27:32.915Z,4.3
2022-07-29T10:29:33.652Z,4.3
2022-07-29T10:31:39.560Z,5.1
2022-07-29T10:33:40.527Z,4.2
2022-07-29T10:35:41.578Z,3.8
2022-07-29T10:40:45.860Z,3.7
2022-07-29T10:42:46.931Z,4.5
2022-07-29T10:44:51.212Z,5.7
2022-07-29T10:46:52.488Z,4.1
2022-07-29T10:48:53.407Z,3.5
2022-07-29T10:50:54.418Z,4.9
2022-07-29T10:52:55.496Z,4.1
2022-07-29T10:54:56.581Z,3.9
2022-07-29T10:56:57.661Z,5.2
2022-07-29T10:59:01.969Z,5.2
2022-07-29T11:01:02.956Z,4.5
2022-07-29T11:03:04.684Z,5.7
2022-07-29T11:05:05.292Z,4.5
2022-07-29T11:07:06.368Z,8.9
2022-07-29T11:09:07.414Z,4.6
2022-07-29T11:11:08.467Z,3.7
2022-07-29T11:13:12.724Z,9.8
2022-07-29T11:15:13.785Z,17.5
2022-07-29T11:17:14.797Z,3.8
2022-07-29T11:19:15.832Z,4.2
2022-07-29T11:21:16.877Z,3.9
2022-07-29T11:23:17.923Z,3.9
2022-07-29T11:25:18.959Z,5.1
2022-07-29T11:27:23.249Z,4
2022-07-29T11:29:24.291Z,5.5
2022-07-29T11:32:29.497Z,3.9
2022-07-29T11:34:29.777Z,3.2
2022-07-29T11:36:29.457Z,4.2
2022-07-29T11:38:32.046Z,3.5
2022-07-29T11:40:34.721Z,3.8
2022-07-29T11:42:35.760Z,4.6
2022-07-29T11:44:36.777Z,3.4
2022-07-29T11:46:37.810Z,3.7
2022-07-29T11:48:38.870Z,3.6
2022-07-29T11:50:44.403Z,4.2
2022-07-29T11:52:49.548Z,3.2
2022-07-29T11:54:57.469Z,3.8
2022-07-29T11:56:46.306Z,4.1
2022-07-29T12:00:48.076Z,3.6
2022-07-29T12:04:50.069Z,3.3
2022-07-29T12:10:56.271Z,3.2
2022-07-29T12:12:57.260Z,2.6
2022-07-29T12:14:58.246Z,3.4
2022-07-29T12:16:59.331Z,3.2
2022-07-29T12:19:00.229Z,2.9
2022-07-29T12:21:03.415Z,2.7
2022-07-29T12:23:05.396Z,2.5
2022-07-29T12:25:30.404Z,2.7
2022-07-29T12:27:07.349Z,1.9
2022-07-29T12:29:35.883Z,2.3
2022-07-29T12:31:42.739Z,2.2
2022-07-29T12:33:37.119Z,3.6
2022-07-29T12:35:41.333Z,2.6
2022-07-29T12:37:42.733Z,3.9
2022-07-29T12:39:43.313Z,2.9
2022-07-29T12:41:44.303Z,2.3
2022-07-29T12:45:46.254Z,3.4
2022-07-29T12:47:47.239Z,2.8
2022-07-29T12:49:51.524Z,2.1
2022-07-29T12:51:52.449Z,2.2
2022-07-29T12:53:53.447Z,2.7
2022-07-29T12:59:56.412Z,2.3
2022-07-29T13:16:07.574Z,1.8
2022-07-29T13:20:12.762Z,2.7
2022-07-29T13:23:15.853Z,1.5
2022-07-29T13:25:16.825Z,3.1
2022-07-29T13:27:17.806Z,2.5
2022-07-29T13:29:18.800Z,2.3
2022-07-29T13:31:22.995Z,3
2022-07-29T13:33:23.959Z,2.4
2022-07-29T13:35:24.955Z,2.3
2022-07-29T13:37:25.918Z,2.5
2022-07-29T13:39:26.926Z,1.4
2022-07-29T13:41:27.917Z,1.9
2022-07-29T13:43:28.894Z,3.2
2022-07-29T13:45:33.093Z,2.6
2022-07-29T13:47:34.109Z,1.5
2022-07-29T13:49:35.062Z,2.1
2022-07-29T13:51:36.047Z,2.4
2022-07-29T13:55:37.999Z,2.2
2022-07-29T13:57:38.980Z,2.2
2022-07-29T13:59:43.179Z,1.6
2022-07-29T14:03:45.718Z,1.7
2022-07-29T14:05:46.088Z,2.5
2022-07-29T14:07:47.078Z,4.2
2022-07-29T14:09:48.035Z,1.7
2022-07-29T14:11:49.022Z,2.3
2022-07-29T14:13:53.223Z,1.5
2022-07-29T14:15:54.184Z,2.5
2022-07-29T14:17:55.136Z,1.9
2022-07-29T14:20:58.197Z,1.4
2022-07-29T14:22:59.148Z,2
2022-07-29T14:25:04.530Z,3.2
2022-07-29T14:29:05.262Z,1.6
2022-07-29T14:31:06.201Z,3.3
2022-07-29T14:33:07.177Z,1.6
2022-07-29T14:35:08.145Z,1.2
2022-07-29T14:37:09.112Z,2
2022-07-29T14:39:10.094Z,2.3
2022-07-29T14:43:15.236Z,1.5
2022-07-29T14:45:16.203Z,2
2022-07-29T14:47:17.146Z,1.5
2022-07-29T14:49:18.223Z,1.9
2022-07-29T14:51:19.078Z,2.7
2022-07-29T14:53:20.065Z,3.9
2022-07-29T14:55:24.247Z,1.5
2022-07-29T15:01:27.230Z,2
2022-07-29T15:03:28.168Z,4.5
2022-07-29T15:05:29.090Z,1.5
2022-07-29T15:14:38.216Z,1.3
2022-07-29T15:16:39.330Z,1.5
2022-07-29T15:18:40.161Z,1.5
2022-07-29T15:20:41.127Z,0.9
2022-07-29T15:22:45.312Z,2
2022-07-29T15:24:46.275Z,1.3
2022-07-29T15:26:47.222Z,1.3
2022-07-29T15:28:48.187Z,1.6
2022-07-29T15:30:49.153Z,1.9
2022-07-29T15:32:50.121Z,1
2022-07-29T15:34:51.080Z,1.8
2022-07-29T15:36:55.270Z,1.5
2022-07-29T15:38:56.228Z,1.2
2022-07-29T15:40:57.201Z,1.9
2022-07-29T15:42:58.179Z,1.6
2022-07-29T15:44:59.088Z,1.9
2022-07-29T15:47:00.728Z,1
2022-07-29T15:49:01.091Z,1.5
2022-07-29T15:55:07.080Z,4.2
2022-07-29T15:57:08.029Z,2.1
2022-07-29T15:59:08.991Z,2.4
2022-07-29T16:01:10.063Z,0.9
2022-07-29T16:03:10.883Z,1.1
2022-07-29T16:09:16.989Z,1.9
2022-07-29T16:11:44.776Z,1.4
2022-07-29T16:17:50.857Z,1.4
2022-07-29T16:19:53.364Z,2.5
2022-07-29T16:21:59.525Z,1.4
2022-07-29T16:23:55.233Z,1.6
2022-07-29T16:27:59.818Z,1.8
2022-07-29T16:29:58.126Z,1.3
2022-07-29T16:32:02.335Z,1.9
2022-07-29T16:34:03.229Z,1.5
2022-07-29T16:38:05.151Z,1.7
2022-07-29T16:40:06.131Z,1.9
2022-07-29T16:42:07.113Z,1.7
2022-07-29T16:44:08.047Z,1.7
2022-07-29T16:46:13.202Z,2.6
2022-07-29T16:48:13.189Z,3.4
2022-07-29T16:50:14.270Z,2.4
2022-07-29T16:52:15.143Z,2.1
2022-07-29T16:54:16.107Z,2.4
2022-07-29T16:56:17.068Z,1.9
2022-07-29T16:58:18.039Z,1.9
2022-07-29T17:00:22.248Z,2.2
2022-07-29T17:02:23.270Z,1.9
2022-07-29T17:04:24.211Z,1.7
2022-07-29T17:07:27.266Z,2.1
2022-07-29T17:09:28.260Z,2.5
2022-07-29T17:11:52.426Z,2.5
2022-07-29T17:13:33.429Z,4.2
2022-07-29T17:15:36.391Z,2.4
2022-07-29T17:17:38.535Z,1.7
2022-07-29T17:19:36.384Z,1.7
2022-07-29T17:21:38.160Z,3.4
2022-07-29T17:23:39.133Z,2.8
2022-07-29T17:25:40.136Z,3.1
2022-07-29T17:27:44.345Z,2.1
2022-07-29T17:29:45.327Z,2.3
2022-07-29T17:31:46.338Z,2.9
2022-07-29T17:33:47.324Z,2.7
2022-07-29T17:35:48.299Z,2.2
2022-07-29T17:37:49.293Z,1.6
2022-07-29T17:39:50.281Z,1.4
2022-07-29T17:47:57.473Z,2.1
2022-07-29T17:49:58.463Z,1.8
2022-07-29T17:52:01.134Z,1.8
2022-07-29T17:54:00.445Z,1.5
2022-07-29T17:58:05.675Z,2.4
2022-07-29T18:00:08.434Z,2.4
2022-07-29T18:01:08.877Z,2.6
2022-07-29T18:03:09.830Z,3.4
2022-07-29T18:05:10.767Z,4.8
2022-07-29T18:07:11.754Z,4
2022-07-29T18:11:16.935Z,3.3
2022-07-29T18:13:17.946Z,2.6
2022-07-29T18:15:18.935Z,2.1
2022-07-29T18:17:19.922Z,3
2022-07-29T18:19:20.934Z,2.5
2022-07-29T18:21:41.039Z,3
2022-07-29T18:25:27.132Z,4.6
2022-07-29T18:27:28.129Z,2.9
2022-07-29T18:31:30.285Z,2.3
2022-07-29T18:33:31.162Z,2.1
2022-07-29T18:35:32.162Z,3.5
2022-07-29T18:39:37.392Z,2
2022-07-29T18:41:38.408Z,2
2022-07-29T18:43:39.409Z,2.1
2022-07-29T18:45:40.459Z,1.8
2022-07-29T18:47:41.457Z,2.7
2022-07-29T18:49:42.473Z,2.2
2022-07-29T18:51:46.698Z,2.7
2022-07-29T18:53:47.698Z,3.4
2022-07-29T18:55:48.729Z,7
2022-07-29T18:56:50.839Z,3
2022-07-29T19:00:52.894Z,3.6
2022-07-29T19:02:54.094Z,3
2022-07-29T19:04:58.130Z,2.9
2022-07-29T19:06:59.627Z,3.9
2022-07-29T19:09:00.195Z,3.1
2022-07-29T19:11:01.222Z,2.7
2022-07-29T19:13:02.276Z,2.2
2022-07-29T19:15:03.356Z,1.9
2022-07-29T19:17:04.495Z,2.2
2022-07-29T19:19:08.545Z,3
2022-07-29T19:21:09.562Z,1.9
2022-07-29T19:23:10.591Z,2
2022-07-29T19:25:11.621Z,2.2
2022-07-29T19:27:12.687Z,1.2
2022-07-29T19:29:13.689Z,1.5
2022-07-29T19:31:14.811Z,2.1
2022-07-29T19:33:19.042Z,2.2
2022-07-29T19:35:20.014Z,2.5
2022-07-29T19:37:21.031Z,2.4
2022-07-29T19:41:23.134Z,2.6
2022-07-29T19:43:49.697Z,2.2
2022-07-29T19:45:25.313Z,1.8
2022-07-29T19:47:29.473Z,2
2022-07-29T19:49:30.515Z,3.2
2022-07-29T19:53:59.481Z,2.4
2022-07-29T19:56:00.496Z,3
2022-07-29T19:58:01.568Z,2
2022-07-29T20:00:05.826Z,3.4
2022-07-29T20:02:06.952Z,2.8
2022-07-29T20:04:07.923Z,2.8
2022-07-29T20:06:08.970Z,2.5
2022-07-29T20:08:10.030Z,2.8
2022-07-29T20:10:11.093Z,2.4
2022-07-29T20:16:17.518Z,2.5
2022-07-29T20:18:18.526Z,2.3
2022-07-29T20:20:19.591Z,3.5
2022-07-29T20:22:21.186Z,2.5
2022-07-29T20:24:21.695Z,2.2
2022-07-29T20:26:22.760Z,3.2
2022-07-29T20:28:27.010Z,2.7
2022-07-29T20:30:28.100Z,3
2022-07-29T20:32:29.166Z,4.1
2022-07-29T20:34:30.232Z,2.9
2022-07-29T20:36:31.279Z,2.9
2022-07-29T20:38:32.363Z,2.8
2022-07-29T20:40:33.439Z,3.7
2022-07-29T20:42:37.700Z,2.7
2022-07-29T20:44:38.752Z,2.8
2022-07-29T20:46:39.946Z,4.3
2022-07-29T20:47:41.961Z,3.3
2022-07-29T20:49:43.053Z,4.9
2022-07-29T20:51:44.296Z,5.1
2022-07-29T20:53:45.180Z,4.8
2022-07-29T20:55:49.477Z,5.1
2022-07-29T21:05:54.864Z,5.7
2022-07-29T21:07:58.230Z,7.4
2022-07-29T21:10:00.240Z,6.1
2022-07-29T21:12:01.277Z,7.2
2022-07-29T21:14:02.379Z,4
2022-07-29T21:18:04.587Z,4.1
2022-07-29T21:20:05.675Z,4.3
2022-07-29T21:22:06.774Z,4.3
2022-07-29T21:24:12.005Z,4.9
2022-07-29T21:30:14.308Z,4
2022-07-29T21:32:27.493Z,4.3
2022-07-29T21:34:16.479Z,5.1
2022-07-29T21:36:46.375Z,3.8
2022-07-29T21:38:21.862Z,4.3
2022-07-29T21:40:22.959Z,4.9
2022-07-29T21:43:26.202Z,5.3
2022-07-29T21:45:27.439Z,4
2022-07-29T21:47:28.377Z,4.4
2022-07-29T21:49:29.545Z,5.3
2022-07-29T21:51:33.779Z,5.4
2022-07-29T21:53:34.847Z,4.9
2022-07-29T21:55:35.941Z,5.6
2022-07-29T21:57:37.039Z,4.4
2022-07-29T21:59:38.131Z,5.6
2022-07-29T22:01:39.692Z,4.7
2022-07-29T22:03:40.372Z,4.3
2022-07-29T22:05:44.805Z,5.7
2022-07-29T22:07:54.429Z,5.2
2022-07-29T22:09:48.389Z,6.3
2022-07-29T22:11:49.467Z,6.2
2022-07-29T22:13:50.568Z,5.9
2022-07-29T22:15:51.665Z,6.4
2022-07-29T22:17:52.753Z,5.7
2022-07-29T22:19:57.068Z,7.3
2022-07-29T22:21:58.177Z,6.5
2022-07-29T22:26:00.366Z,6.9
2022-07-29T22:28:01.518Z,8.1
2022-07-29T22:30:02.610Z,7.8
2022-07-29T22:32:03.708Z,7.7
2022-07-29T22:34:07.989Z,8.3
2022-07-29T22:36:09.136Z,7.8
2022-07-29T22:38:10.269Z,9.7
2022-07-29T22:39:15.497Z,8.1
2022-07-29T22:41:14.801Z,7.5
2022-07-29T22:43:14.609Z,7
2022-07-29T22:45:15.741Z,6.9
2022-07-29T22:47:45.845Z,7.2
2022-07-29T22:49:21.228Z,7.7
2022-07-29T22:51:22.288Z,9.3
2022-07-29T22:53:23.404Z,6.4
2022-07-29T22:55:24.517Z,5.5
2022-07-29T22:57:25.645Z,7.1
2022-07-29T22:59:26.761Z,6.5
2022-07-29T23:01:37.558Z,6.5
2022-07-29T23:03:32.178Z,7.6
2022-07-29T23:05:33.284Z,7.2
2022-07-29T23:07:34.362Z,7.3
2022-07-29T23:09:35.488Z,11.6
2022-07-29T23:11:36.590Z,8.2
2022-07-29T23:19:44.242Z,9
2022-07-29T23:21:45.372Z,10.6
2022-07-29T23:23:46.480Z,11.1
2022-07-29T23:25:47.586Z,10.6
2022-07-29T23:27:48.707Z,10.9
2022-07-29T23:29:53.001Z,10.9
2022-07-29T23:31:54.119Z,8.8
2022-07-29T23:33:55.223Z,9.4
2022-07-29T23:40:19.554Z,9.3
2022-07-29T23:46:26.140Z,8.4
2022-07-29T23:48:27.213Z,9.1
2022-07-29T23:50:28.324Z,10.2
2022-07-29T23:52:29.442Z,8.9
2022-07-29T23:54:30.545Z,8.2
2022-07-29T23:56:34.878Z,8.6
2022-07-29T23:58:35.979Z,11.4
